createdAt,value
2023-04-14T00:01:22.644Z,9.40
2023-04-14T00:06:27.269Z,9.30
2023-04-14T00:11:29.945Z,9.30
2023-04-14T00:16:32.716Z,9.30
2023-04-14T00:21:36.663Z,9.20
2023-04-14T00:26:39.337Z,9.20
2023-04-14T00:31:42.002Z,9.20
2023-04-14T00:36:46.131Z,9.30
2023-04-14T00:41:48.854Z,9.20
2023-04-14T00:46:51.954Z,9.10
2023-04-14T00:51:57.446Z,9.10
2023-04-14T00:57:00.613Z,9.10
2023-04-14T01:02:03.521Z,9.10
2023-04-14T01:07:07.670Z,9.10
2023-04-14T01:12:24.207Z,9.10
2023-04-14T01:17:33.755Z,9.20
2023-04-14T01:22:43.952Z,9.30
2023-04-14T01:28:10.699Z,9.50
2023-04-14T01:33:21.782Z,9.40
2023-04-14T01:38:27.797Z,9.30
2023-04-14T01:43:32.946Z,9.30
2023-04-14T01:48:37.580Z,9.20
2023-04-14T01:53:43.812Z,9.10
2023-04-14T01:58:49.113Z,9.10
2023-04-14T02:03:53.278Z,9.00
2023-04-14T02:08:56.924Z,9.10
2023-04-14T02:14:00.584Z,9.00
2023-04-14T02:19:06.020Z,9.00
2023-04-14T02:24:09.274Z,9.00
2023-04-14T02:29:14.459Z,8.90
2023-04-14T02:34:23.564Z,8.90
2023-04-14T02:39:31.314Z,9.00
2023-04-14T02:44:37.452Z,9.10
2023-04-14T02:49:45.208Z,9.10
2023-04-14T02:54:49.983Z,9.00
2023-04-14T02:59:53.303Z,9.10
2023-04-14T03:04:57.923Z,9.00
2023-04-14T03:10:01.285Z,8.90
2023-04-14T03:15:04.503Z,8.90
2023-04-14T03:20:10.428Z,8.80
2023-04-14T03:25:13.145Z,8.70
2023-04-14T03:30:17.489Z,8.60
2023-04-14T03:35:22.990Z,8.50
2023-04-14T03:40:30.651Z,8.30
2023-04-14T03:45:34.038Z,8.30
2023-04-14T03:50:42.093Z,8.30
2023-04-14T03:55:47.307Z,8.30
2023-04-14T04:00:50.365Z,8.20
2023-04-14T04:05:54.995Z,8.20
2023-04-14T04:10:58.934Z,8.10
2023-04-14T04:16:02.228Z,8.10
2023-04-14T04:21:07.933Z,8.10
2023-04-14T04:26:10.857Z,8.10
2023-04-14T04:31:15.910Z,8.10
2023-04-14T04:36:20.753Z,8.00
2023-04-14T04:41:23.919Z,8.00
2023-04-14T04:46:43.613Z,8.20
2023-04-14T04:51:47.768Z,8.30
2023-04-14T04:56:50.626Z,8.30
2023-04-14T05:01:53.376Z,8.40
2023-04-14T05:06:57.411Z,8.30
2023-04-14T05:12:00.600Z,8.30
2023-04-14T05:17:03.713Z,8.30
2023-04-14T05:22:07.708Z,8.40
2023-04-14T05:27:14.376Z,8.40
2023-04-14T05:32:17.496Z,8.40
2023-04-14T05:37:21.573Z,8.40
2023-04-14T05:42:24.397Z,8.50
2023-04-14T05:47:27.154Z,8.50
2023-04-14T05:52:31.168Z,8.60
2023-04-14T05:57:33.866Z,8.60
2023-04-14T06:02:37.207Z,8.70
2023-04-14T06:07:42.033Z,8.70
2023-04-14T06:12:45.648Z,8.80
2023-04-14T06:17:48.639Z,8.90
2023-04-14T06:22:52.723Z,8.90
2023-04-14T06:27:55.469Z,9.10
2023-04-14T06:32:58.162Z,9.30
2023-04-14T06:38:02.543Z,9.40
2023-04-14T06:43:05.847Z,9.60
2023-04-14T06:48:09.000Z,9.60
2023-04-14T06:53:13.007Z,9.70
2023-04-14T06:58:15.785Z,9.40
2023-04-14T07:03:18.678Z,9.40
2023-04-14T07:08:22.891Z,9.50
2023-04-14T07:13:25.992Z,9.60
2023-04-14T07:18:28.826Z,9.80
2023-04-14T07:23:33.581Z,9.90
2023-04-14T07:28:37.144Z,9.70
2023-04-14T07:33:39.853Z,9.70
2023-04-14T07:38:43.848Z,9.70
2023-04-14T07:43:46.631Z,9.70
2023-04-14T07:48:49.284Z,9.60
2023-04-14T07:53:53.440Z,9.50
2023-04-14T07:58:57.716Z,9.40
2023-04-14T08:04:00.632Z,9.30
2023-04-14T08:09:04.859Z,9.40
2023-04-14T08:14:09.762Z,9.40
2023-04-14T08:19:12.390Z,9.30
2023-04-14T08:24:16.429Z,9.50
2023-04-14T08:29:22.747Z,9.50
2023-04-14T08:34:28.411Z,9.40
2023-04-14T08:39:35.564Z,9.20
2023-04-14T08:44:38.250Z,9.20
2023-04-14T08:49:43.190Z,9.10
2023-04-14T08:54:49.894Z,8.80
2023-04-14T08:59:53.341Z,9.00
2023-04-14T09:04:58.381Z,9.10
2023-04-14T09:10:03.522Z,8.90
2023-04-14T09:15:07.739Z,8.70
2023-04-14T09:20:35.106Z,8.60
2023-04-14T09:25:36.473Z,8.70
2023-04-14T09:30:39.176Z,8.80
2023-04-14T09:35:47.336Z,9.10
2023-04-14T09:40:54.315Z,9.10
2023-04-14T09:46:04.637Z,9.20
2023-04-14T09:51:09.856Z,9.20
2023-04-14T09:56:14.294Z,9.20
2023-04-14T10:01:18.698Z,8.90
2023-04-14T10:06:23.174Z,8.80
2023-04-14T10:11:29.624Z,8.80
2023-04-14T10:16:33.254Z,8.90
2023-04-14T10:21:36.471Z,9.20
2023-04-14T10:26:42.773Z,9.20
2023-04-14T10:31:49.355Z,9.30
2023-04-14T10:36:52.122Z,9.10
2023-04-14T10:41:57.898Z,9.00
2023-04-14T10:47:02.872Z,9.20
2023-04-14T10:52:07.534Z,9.20
2023-04-14T10:57:14.440Z,9.20
2023-04-14T11:02:24.977Z,9.20
2023-04-14T11:07:31.299Z,9.20
2023-04-14T11:12:43.466Z,9.10
2023-04-14T11:17:46.221Z,9.20
2023-04-14T11:22:50.210Z,9.30
2023-04-14T11:27:54.176Z,9.40
2023-04-14T11:32:58.747Z,9.20
2023-04-14T11:38:01.790Z,9.30
2023-04-14T11:43:07.982Z,9.30
2023-04-14T11:48:12.667Z,9.30
2023-04-14T11:53:19.753Z,9.30
2023-04-14T11:58:29.130Z,9.40
2023-04-14T12:03:42.675Z,9.40
2023-04-14T12:09:02.543Z,9.30
2023-04-14T12:14:13.189Z,9.50
2023-04-14T12:19:16.835Z,9.50
2023-04-14T12:24:19.650Z,9.60
2023-04-14T12:29:24.171Z,10.00
2023-04-14T12:34:31.307Z,9.90
2023-04-14T12:39:50.598Z,9.90
2023-04-14T12:45:01.083Z,10.00
2023-04-14T12:50:24.698Z,10.00
2023-04-14T12:55:29.730Z,9.90
2023-04-14T13:00:33.803Z,9.90
2023-04-14T13:05:36.495Z,10.00
2023-04-14T13:10:39.212Z,9.90
2023-04-14T13:16:13.108Z,9.80
2023-04-14T13:21:07.816Z,9.60
2023-04-14T13:26:12.503Z,9.30
2023-04-14T13:31:20.269Z,9.30
2023-04-14T13:36:23.167Z,9.20
2023-04-14T13:41:28.766Z,9.20
2023-04-14T13:46:44.601Z,9.30
2023-04-14T13:51:47.671Z,9.30
2023-04-14T13:56:50.673Z,9.30
2023-04-14T14:02:08.584Z,9.40
2023-04-14T14:07:27.560Z,9.60
2023-04-14T14:13:02.168Z,9.70
2023-04-14T14:18:23.503Z,9.80
2023-04-14T14:29:15.898Z,9.70
2023-04-14T14:34:31.410Z,9.50
2023-04-14T14:39:49.957Z,9.30
2023-04-14T14:44:57.632Z,9.30
2023-04-14T14:50:05.775Z,9.50
2023-04-14T14:55:10.550Z,9.60
2023-04-14T15:00:14.230Z,9.60
2023-04-14T15:05:18.457Z,9.60
2023-04-14T15:10:21.178Z,9.60
2023-04-14T15:15:23.848Z,9.50
2023-04-14T15:20:27.938Z,9.40
2023-04-14T15:25:30.998Z,9.40
2023-04-14T15:30:33.678Z,9.40
2023-04-14T15:35:38.884Z,9.40
2023-04-14T15:40:42.593Z,9.40
2023-04-14T15:45:45.632Z,9.20
2023-04-14T15:50:49.696Z,9.40
2023-04-14T15:55:52.369Z,9.30
2023-04-14T16:00:55.008Z,9.20
2023-04-14T16:06:03.001Z,9.00
2023-04-14T16:11:05.829Z,9.00
2023-04-14T16:16:08.551Z,9.10
2023-04-14T16:21:13.284Z,9.10
2023-04-14T16:26:17.302Z,9.10
2023-04-14T16:31:20.007Z,9.20
2023-04-14T16:36:25.360Z,9.10
2023-04-14T16:41:28.273Z,9.10
2023-04-14T16:46:31.063Z,9.00
2023-04-14T16:51:35.131Z,8.90
2023-04-14T16:56:38.231Z,9.00
2023-04-14T17:01:41.333Z,9.00
2023-04-14T17:06:46.429Z,8.80
2023-04-14T17:11:49.382Z,8.90
2023-04-14T17:16:52.242Z,8.90
2023-04-14T17:21:56.892Z,8.80
2023-04-14T17:27:00.480Z,8.70
2023-04-14T17:32:03.356Z,8.50
2023-04-14T17:37:07.526Z,8.50
2023-04-14T17:42:11.313Z,8.50
2023-04-14T17:47:15.488Z,8.60
2023-04-14T17:52:20.598Z,8.50
2023-04-14T17:57:24.561Z,8.60
2023-04-14T18:02:29.058Z,8.60
2023-04-14T18:07:33.194Z,8.50
2023-04-14T18:12:36.529Z,8.50
2023-04-14T18:17:39.384Z,8.40
2023-04-14T18:22:43.615Z,8.40
2023-04-14T18:32:52.219Z,8.20
2023-04-14T18:37:56.606Z,8.20
2023-04-14T18:43:01.044Z,8.40
2023-04-14T18:48:04.804Z,8.30
2023-04-14T18:53:08.856Z,8.40
2023-04-14T18:58:13.181Z,8.40
2023-04-14T19:03:16.956Z,8.40
2023-04-14T19:08:21.560Z,8.40
2023-04-14T19:13:24.439Z,8.40
2023-04-14T19:18:27.941Z,8.20
2023-04-14T19:23:31.949Z,8.30
2023-04-14T19:28:34.789Z,8.20
2023-04-14T19:33:38.580Z,8.20
2023-04-14T19:38:42.666Z,8.20
2023-04-14T19:43:45.732Z,8.10
2023-04-14T19:48:48.456Z,8.10
2023-04-14T19:53:52.529Z,8.10
2023-04-14T19:58:55.228Z,8.10
2023-04-14T20:04:07.454Z,8.10
2023-04-14T20:09:16.994Z,8.10
2023-04-14T20:14:19.734Z,8.10
2023-04-14T20:19:22.506Z,8.10
2023-04-14T20:24:26.964Z,8.10
2023-04-14T20:29:30.560Z,8.10
2023-04-14T20:34:33.964Z,8.00
2023-04-14T20:39:38.177Z,8.00
2023-04-14T20:44:41.414Z,8.10
2023-04-14T21:21:50.730Z,7.90
2023-04-14T21:27:25.193Z,7.90
2023-04-14T21:32:38.882Z,7.90
2023-04-14T21:37:42.016Z,7.90
2023-04-14T21:42:51.120Z,7.90
2023-04-14T21:48:03.115Z,7.90
2023-04-14T21:53:12.365Z,7.80
2023-04-14T21:58:16.797Z,7.90
2023-04-14T22:03:19.568Z,7.90
2023-04-14T22:08:23.573Z,7.80
2023-04-14T22:13:29.790Z,7.90
2023-04-14T22:18:32.460Z,7.90
2023-04-14T22:23:35.099Z,7.90
2023-04-14T22:28:39.081Z,7.80
2023-04-14T22:33:42.492Z,7.70
2023-04-14T22:38:48.224Z,7.70
2023-04-14T22:43:52.215Z,7.80
2023-04-14T22:48:56.449Z,7.70
2023-04-14T22:53:59.239Z,7.80
2023-04-14T22:59:03.679Z,7.70
2023-04-14T23:04:06.686Z,7.80
2023-04-14T23:09:09.500Z,7.60
2023-04-14T23:14:13.562Z,7.70
2023-04-14T23:19:16.426Z,7.70
2023-04-14T23:24:19.496Z,7.70
2023-04-14T23:29:23.564Z,7.70
2023-04-14T23:34:26.289Z,7.70
2023-04-14T23:39:29.142Z,7.80
2023-04-14T23:44:33.203Z,7.80
2023-04-14T23:49:36.085Z,7.70
2023-04-14T23:54:38.931Z,7.70
2023-04-14T23:59:43.136Z,7.70
